createdAt,value
2023-02-05T00:00:19.446Z,95.51
2023-02-05T00:00:51.873Z,95.72
2023-02-05T00:01:24.322Z,96.03
2023-02-05T00:01:57.083Z,95.93
2023-02-05T00:02:29.530Z,95.83
2023-02-05T00:03:02.086Z,95.31
2023-02-05T00:03:34.496Z,94.37
2023-02-05T00:04:14.482Z,93.75
2023-02-05T00:04:46.945Z,93.85
2023-02-05T00:05:19.491Z,94.17
2023-02-05T00:05:51.930Z,94.58
2023-02-05T00:06:24.397Z,94.58
2023-02-05T00:06:56.865Z,94.89
2023-02-05T00:07:29.304Z,95.20
2023-02-05T00:08:01.750Z,94.68
2023-02-05T00:08:34.246Z,94.17
2023-02-05T00:09:06.734Z,94.58
2023-02-05T00:09:39.173Z,94.79
2023-02-05T00:10:11.630Z,94.79
2023-02-05T00:10:44.093Z,94.37
2023-02-05T00:11:16.525Z,93.75
2023-02-05T00:11:48.988Z,93.54
2023-02-05T00:12:21.434Z,93.44
2023-02-05T00:12:53.873Z,93.75
2023-02-05T00:13:26.348Z,93.54
2023-02-05T00:13:58.853Z,93.02
2023-02-05T00:14:31.355Z,93.23
2023-02-05T00:15:03.787Z,92.82
2023-02-05T00:15:36.369Z,92.51
2023-02-05T00:16:08.858Z,92.61
2023-02-05T00:16:41.394Z,92.82
2023-02-05T00:17:13.838Z,93.23
2023-02-05T00:17:46.320Z,93.02
2023-02-05T00:18:18.769Z,92.51
2023-02-05T00:18:51.209Z,91.99
2023-02-05T00:19:23.668Z,91.99
2023-02-05T00:19:56.132Z,92.10
2023-02-05T00:20:28.592Z,91.89
2023-02-05T00:21:01.044Z,92.41
2023-02-05T00:21:33.541Z,92.82
2023-02-05T00:22:06.003Z,93.13
2023-02-05T00:22:38.522Z,93.44
2023-02-05T00:23:10.952Z,93.44
2023-02-05T00:23:43.487Z,93.23
2023-02-05T00:24:15.928Z,93.33
2023-02-05T00:24:48.375Z,93.65
2023-02-05T00:25:20.830Z,93.75
2023-02-05T00:25:53.270Z,93.96
2023-02-05T00:26:25.741Z,93.96
2023-02-05T00:26:58.187Z,94.17
2023-02-05T00:27:30.645Z,94.27
2023-02-05T00:28:03.233Z,94.27
2023-02-05T00:28:35.687Z,93.85
2023-02-05T00:29:08.141Z,93.65
2023-02-05T00:29:40.626Z,93.13
2023-02-05T00:30:13.121Z,92.61
2023-02-05T00:30:45.699Z,92.45
2023-02-05T00:31:18.155Z,92.55
2023-02-05T00:31:50.567Z,92.55
2023-02-05T00:32:23.000Z,92.66
2023-02-05T00:32:55.487Z,92.66
2023-02-05T00:33:27.989Z,92.66
2023-02-05T00:34:00.453Z,92.66
2023-02-05T00:34:32.917Z,91.83
2023-02-05T00:35:05.401Z,91.31
2023-02-05T00:35:37.881Z,90.69
2023-02-05T00:36:11.894Z,90.48
2023-02-05T00:36:42.854Z,90.69
2023-02-05T00:37:15.379Z,90.89
2023-02-05T00:37:47.878Z,91.00
2023-02-05T00:38:20.357Z,91.31
2023-02-05T00:38:52.840Z,91.52
2023-02-05T00:39:25.431Z,92.03
2023-02-05T00:39:57.920Z,92.86
2023-02-05T00:40:30.352Z,92.97
2023-02-05T00:41:02.817Z,92.55
2023-02-05T00:41:35.330Z,92.55
2023-02-05T00:42:07.765Z,92.76
2023-02-05T00:42:40.229Z,93.28
2023-02-05T00:43:12.675Z,93.49
2023-02-05T00:43:45.209Z,93.70
2023-02-05T00:44:17.680Z,94.01
2023-02-05T00:44:50.114Z,94.53
2023-02-05T00:45:22.548Z,95.04
2023-02-05T00:45:55.072Z,95.46
2023-02-05T00:46:27.516Z,95.87
2023-02-05T00:46:59.976Z,96.08
2023-02-05T00:47:32.418Z,96.29
2023-02-05T00:48:04.883Z,96.29
2023-02-05T00:48:37.366Z,96.50
2023-02-05T00:49:09.824Z,96.70
2023-02-05T00:49:42.397Z,96.70
2023-02-05T00:50:14.854Z,95.77
2023-02-05T00:50:47.308Z,94.21
2023-02-05T00:51:19.720Z,93.18
2023-02-05T00:51:52.159Z,92.14
2023-02-05T00:52:24.623Z,92.35
2023-02-05T00:52:57.103Z,92.66
2023-02-05T00:53:29.532Z,92.86
2023-02-05T00:54:01.992Z,92.86
2023-02-05T00:54:34.476Z,92.76
2023-02-05T00:55:06.917Z,91.72
2023-02-05T00:55:39.356Z,91.35
2023-02-05T00:56:11.806Z,91.14
2023-02-05T00:56:44.306Z,90.93
2023-02-05T00:57:16.752Z,91.14
2023-02-05T00:57:49.301Z,91.24
2023-02-05T00:58:21.750Z,91.45
2023-02-05T00:58:54.235Z,92.07
2023-02-05T00:59:26.694Z,92.28
2023-02-05T00:59:59.157Z,92.38
2023-02-05T01:00:31.599Z,92.49
2023-02-05T01:01:04.111Z,92.80
2023-02-05T01:01:36.504Z,93.12
2023-02-05T01:02:08.931Z,92.49
2023-02-05T01:02:41.420Z,92.38
2023-02-05T01:03:13.772Z,92.80
2023-02-05T01:03:46.241Z,93.01
2023-02-05T01:04:18.703Z,92.69
2023-02-05T01:04:51.252Z,92.69
2023-02-05T01:05:23.682Z,93.01
2023-02-05T01:05:56.171Z,93.12
2023-02-05T01:06:28.583Z,93.53
2023-02-05T01:07:01.018Z,93.74
2023-02-05T01:07:34.312Z,94.15
2023-02-05T01:08:06.744Z,94.36
2023-02-05T01:08:39.186Z,94.57
2023-02-05T01:09:11.664Z,94.78
2023-02-05T01:09:44.123Z,94.88
2023-02-05T01:10:16.562Z,94.98
2023-02-05T01:10:49.031Z,95.09
2023-02-05T01:11:21.461Z,95.29
2023-02-05T01:11:53.886Z,95.40
2023-02-05T01:12:26.298Z,95.09
2023-02-05T01:12:58.746Z,94.88
2023-02-05T01:13:31.187Z,94.98
2023-02-05T01:14:03.640Z,95.19
2023-02-05T01:14:36.084Z,95.03
2023-02-05T01:15:08.525Z,94.71
2023-02-05T01:15:40.983Z,94.51
2023-02-05T01:16:13.496Z,94.30
2023-02-05T01:16:45.908Z,94.09
2023-02-05T01:17:18.362Z,94.51
2023-02-05T01:17:50.797Z,94.71
2023-02-05T01:18:23.250Z,94.82
2023-02-05T01:18:55.750Z,94.82
2023-02-05T01:19:29.165Z,94.71
2023-02-05T01:20:01.609Z,94.61
2023-02-05T01:20:34.051Z,94.61
2023-02-05T01:21:06.484Z,94.51
2023-02-05T01:21:38.914Z,94.51
2023-02-05T01:22:11.426Z,94.82
2023-02-05T01:22:43.860Z,95.23
2023-02-05T01:23:16.280Z,95.54
2023-02-05T01:23:48.724Z,95.75
2023-02-05T01:24:21.189Z,95.86
2023-02-05T01:24:53.629Z,96.17
2023-02-05T01:25:26.051Z,96.37
2023-02-05T01:25:58.511Z,96.58
2023-02-05T01:26:31.013Z,96.69
2023-02-05T01:27:03.464Z,96.79
2023-02-05T01:27:35.946Z,96.89
2023-02-05T01:28:08.438Z,97.00
2023-02-05T01:28:40.903Z,97.06
2023-02-05T01:29:13.414Z,97.16
2023-02-05T01:29:45.876Z,97.16
2023-02-05T01:30:18.354Z,97.37
2023-02-05T01:30:51.013Z,97.37
2023-02-05T01:31:23.376Z,97.58
2023-02-05T01:31:55.818Z,97.37
2023-02-05T01:32:28.256Z,97.47
2023-02-05T01:33:00.740Z,97.47
2023-02-05T01:33:33.259Z,97.68
2023-02-05T01:34:05.757Z,97.68
2023-02-05T01:34:38.242Z,97.58
2023-02-05T01:35:10.702Z,97.37
2023-02-05T01:35:43.244Z,97.47
2023-02-05T01:36:15.736Z,97.68
2023-02-05T01:36:48.165Z,97.89
2023-02-05T01:37:20.599Z,98.05
2023-02-05T01:37:53.057Z,98.16
2023-02-05T01:38:25.507Z,98.16
2023-02-05T01:38:58.022Z,98.16
2023-02-05T01:39:30.533Z,97.95
2023-02-05T01:40:02.965Z,97.33
2023-02-05T01:40:35.444Z,96.44
2023-02-05T01:41:07.906Z,95.77
2023-02-05T01:41:40.385Z,95.71
2023-02-05T01:42:12.875Z,95.81
2023-02-05T01:42:45.323Z,95.61
2023-02-05T01:43:17.766Z,94.57
2023-02-05T01:43:50.290Z,94.15
2023-02-05T01:44:22.668Z,94.26
2023-02-05T01:44:55.191Z,94.26
2023-02-05T01:45:27.627Z,94.26
2023-02-05T01:46:00.145Z,94.46
2023-02-05T01:46:32.614Z,94.67
2023-02-05T01:47:05.071Z,94.36
2023-02-05T01:47:37.550Z,94.57
2023-02-05T01:48:10.021Z,94.36
2023-02-05T01:48:42.528Z,94.26
2023-02-05T01:49:15.043Z,94.26
2023-02-05T01:49:47.485Z,94.26
2023-02-05T01:50:19.955Z,93.95
2023-02-05T01:50:52.429Z,94.05
2023-02-05T01:51:24.854Z,93.84
2023-02-05T01:51:57.309Z,93.84
2023-02-05T01:52:29.754Z,93.84
2023-02-05T01:53:02.211Z,93.74
2023-02-05T01:53:34.641Z,93.63
2023-02-05T01:54:07.132Z,93.32
2023-02-05T01:54:39.638Z,93.22
2023-02-05T01:55:12.094Z,93.22
2023-02-05T01:55:45.007Z,93.22
2023-02-05T01:56:17.744Z,92.94
2023-02-05T01:56:50.315Z,92.94
2023-02-05T01:57:22.769Z,93.37
2023-02-05T01:57:55.253Z,93.57
2023-02-05T01:58:27.753Z,93.47
2023-02-05T01:59:00.178Z,93.47
2023-02-05T01:59:32.685Z,93.68
2023-02-05T02:00:05.140Z,94.20
2023-02-05T02:00:37.581Z,94.15
2023-02-05T02:01:10.031Z,94.20
2023-02-05T02:01:42.548Z,94.46
2023-02-05T02:02:14.982Z,94.67
2023-02-05T02:02:47.406Z,94.78
2023-02-05T02:03:19.854Z,95.19
2023-02-05T02:03:52.264Z,94.78
2023-02-05T02:04:24.763Z,94.78
2023-02-05T02:04:57.260Z,94.88
2023-02-05T02:05:29.683Z,95.09
2023-02-05T02:06:02.157Z,95.40
2023-02-05T02:06:34.668Z,95.61
2023-02-05T02:07:08.208Z,95.92
2023-02-05T02:07:39.581Z,96.23
2023-02-05T02:08:12.078Z,96.44
2023-02-05T02:08:44.504Z,96.54
2023-02-05T02:09:17.015Z,96.44
2023-02-05T02:09:49.499Z,95.71
2023-02-05T02:10:22.021Z,94.98
2023-02-05T02:10:54.459Z,94.57
2023-02-05T02:11:26.929Z,94.36
2023-02-05T02:11:59.374Z,94.36
2023-02-05T02:12:31.888Z,94.57
2023-02-05T02:13:04.343Z,94.78
2023-02-05T02:13:36.818Z,94.98
2023-02-05T02:14:09.301Z,95.19
2023-02-05T02:14:41.835Z,95.61
2023-02-05T02:15:14.319Z,95.98
2023-02-05T02:15:46.909Z,96.19
2023-02-05T02:16:19.479Z,96.50
2023-02-05T02:16:51.841Z,96.70
2023-02-05T02:17:24.341Z,96.81
2023-02-05T02:17:56.812Z,97.02
2023-02-05T02:18:29.399Z,97.02
2023-02-05T02:19:01.855Z,97.12
2023-02-05T02:19:34.362Z,97.12
2023-02-05T02:20:06.817Z,97.22
2023-02-05T02:20:39.304Z,97.33
2023-02-05T02:21:11.783Z,97.33
2023-02-05T02:21:44.301Z,97.43
2023-02-05T02:22:16.787Z,97.43
2023-02-05T02:22:49.283Z,97.33
2023-02-05T02:23:21.734Z,97.22
2023-02-05T02:23:54.211Z,97.02
2023-02-05T02:24:26.767Z,95.77
2023-02-05T02:24:59.275Z,95.36
2023-02-05T02:25:31.920Z,95.67
2023-02-05T02:26:04.253Z,96.08
2023-02-05T02:26:36.726Z,96.50
2023-02-05T02:27:09.196Z,96.91
2023-02-05T02:27:41.722Z,96.70
2023-02-05T02:28:14.191Z,96.29
2023-02-05T02:28:46.679Z,95.77
2023-02-05T02:29:19.216Z,95.67
2023-02-05T02:29:51.684Z,95.77
2023-02-05T02:30:24.201Z,95.56
2023-02-05T02:30:56.803Z,95.15
2023-02-05T02:31:29.302Z,94.73
2023-02-05T02:32:01.761Z,94.63
2023-02-05T02:32:34.277Z,94.73
2023-02-05T02:33:06.752Z,94.73
2023-02-05T02:33:39.278Z,94.63
2023-02-05T02:34:11.805Z,94.94
2023-02-05T02:34:44.296Z,95.15
2023-02-05T02:35:16.748Z,95.46
2023-02-05T02:35:49.230Z,95.56
2023-02-05T02:36:21.700Z,94.94
2023-02-05T02:36:54.162Z,94.53
2023-02-05T02:37:26.655Z,94.21
2023-02-05T02:37:59.149Z,94.21
2023-02-05T02:38:31.632Z,94.01
2023-02-05T02:39:04.130Z,93.70
2023-02-05T02:39:36.564Z,93.80
2023-02-05T02:40:09.025Z,93.59
2023-02-05T02:40:41.473Z,93.49
2023-02-05T02:41:13.946Z,93.18
2023-02-05T02:41:46.466Z,92.97
2023-02-05T02:42:19.028Z,92.97
2023-02-05T02:42:51.493Z,93.07
2023-02-05T02:43:23.988Z,93.28
2023-02-05T02:43:56.534Z,93.49
2023-02-05T02:44:28.990Z,93.80
2023-02-05T02:45:01.543Z,94.53
2023-02-05T02:45:34.220Z,95.04
2023-02-05T02:46:06.618Z,95.56
2023-02-05T02:46:39.141Z,95.62
2023-02-05T02:47:11.567Z,95.72
2023-02-05T02:47:44.057Z,95.83
2023-02-05T02:48:16.522Z,95.93
2023-02-05T02:48:48.988Z,95.83
2023-02-05T02:49:21.461Z,96.03
2023-02-05T02:49:53.932Z,96.03
2023-02-05T02:50:26.416Z,96.14
2023-02-05T02:50:58.853Z,96.24
2023-02-05T02:51:31.337Z,95.93
2023-02-05T02:52:03.827Z,95.31
2023-02-05T02:52:36.319Z,95.00
2023-02-05T02:53:08.749Z,95.31
2023-02-05T02:53:41.262Z,95.51
2023-02-05T02:54:13.743Z,95.62
2023-02-05T02:54:46.253Z,95.51
2023-02-05T02:55:18.718Z,95.20
2023-02-05T02:55:51.222Z,94.58
2023-02-05T02:56:23.714Z,94.17
2023-02-05T02:56:56.212Z,93.96
2023-02-05T02:57:28.714Z,93.65
2023-02-05T02:58:01.201Z,93.44
2023-02-05T02:58:33.705Z,93.49
2023-02-05T02:59:06.176Z,93.59
2023-02-05T02:59:38.614Z,93.80
2023-02-05T03:00:11.069Z,93.80
2023-02-05T03:00:43.538Z,93.49
2023-02-05T03:01:15.980Z,93.38
2023-02-05T03:01:53.763Z,93.70
2023-02-05T03:02:20.856Z,94.11
2023-02-05T03:02:53.359Z,94.11
2023-02-05T03:03:25.909Z,94.01
2023-02-05T03:03:58.434Z,94.11
2023-02-05T03:04:30.941Z,94.42
2023-02-05T03:05:03.401Z,94.32
2023-02-05T03:05:36.318Z,94.53
2023-02-05T03:06:08.466Z,94.89
2023-02-05T03:06:40.922Z,95.51
2023-02-05T03:07:13.358Z,96.03
2023-02-05T03:07:45.782Z,96.34
2023-02-05T03:08:18.236Z,96.66
2023-02-05T03:08:50.699Z,96.97
2023-02-05T03:09:23.142Z,97.17
2023-02-05T03:09:55.608Z,97.28
2023-02-05T03:10:28.181Z,97.38
2023-02-05T03:11:00.654Z,96.76
2023-02-05T03:11:33.147Z,96.03
2023-02-05T03:12:05.625Z,95.10
2023-02-05T03:12:38.063Z,94.27
2023-02-05T03:13:10.537Z,93.90
2023-02-05T03:13:43.030Z,93.90
2023-02-05T03:14:15.484Z,94.21
2023-02-05T03:14:47.959Z,94.32
2023-02-05T03:15:20.421Z,94.42
2023-02-05T03:15:52.887Z,94.42
2023-02-05T03:16:25.417Z,94.53
2023-02-05T03:16:57.789Z,94.63
2023-02-05T03:17:30.275Z,94.84
2023-02-05T03:18:02.803Z,94.73
2023-02-05T03:18:35.303Z,94.94
2023-02-05T03:19:07.760Z,94.94
2023-02-05T03:19:40.237Z,94.94
2023-02-05T03:20:12.738Z,95.15
2023-02-05T03:20:45.233Z,95.46
2023-02-05T03:21:17.699Z,95.46
2023-02-05T03:21:50.265Z,95.56
2023-02-05T03:22:22.714Z,95.67
2023-02-05T03:22:55.240Z,95.98
2023-02-05T03:23:27.699Z,96.08
2023-02-05T03:24:00.184Z,96.08
2023-02-05T03:24:32.696Z,95.36
2023-02-05T03:25:05.267Z,95.15
2023-02-05T03:25:37.689Z,94.84
2023-02-05T03:26:10.184Z,94.84
2023-02-05T03:26:42.693Z,94.94
2023-02-05T03:27:15.174Z,95.15
2023-02-05T03:27:47.795Z,95.36
2023-02-05T03:28:20.391Z,95.67
2023-02-05T03:28:52.946Z,95.87
2023-02-05T03:29:25.401Z,95.98
2023-02-05T03:29:57.872Z,95.61
2023-02-05T03:30:30.391Z,95.50
2023-02-05T03:31:02.905Z,95.61
2023-02-05T03:31:35.357Z,95.71
2023-02-05T03:32:07.842Z,96.02
2023-02-05T03:32:40.311Z,96.02
2023-02-05T03:33:12.843Z,96.02
2023-02-05T03:33:45.296Z,96.12
2023-02-05T03:34:17.771Z,96.12
2023-02-05T03:34:50.271Z,96.33
2023-02-05T03:35:22.734Z,96.54
2023-02-05T03:35:55.254Z,96.75
2023-02-05T03:36:27.804Z,96.75
2023-02-05T03:37:00.328Z,96.85
2023-02-05T03:37:32.867Z,96.85
2023-02-05T03:38:05.308Z,96.64
2023-02-05T03:38:37.855Z,96.33
2023-02-05T03:39:10.344Z,96.33
2023-02-05T03:39:42.936Z,96.33
2023-02-05T03:40:15.421Z,96.44
2023-02-05T03:40:47.886Z,96.33
2023-02-05T03:41:20.437Z,96.23
2023-02-05T03:41:52.937Z,96.12
2023-02-05T03:42:25.400Z,96.02
2023-02-05T03:42:57.852Z,96.02
2023-02-05T03:43:30.325Z,96.12
2023-02-05T03:44:02.746Z,96.33
2023-02-05T03:44:35.200Z,96.54
2023-02-05T03:45:07.659Z,96.64
2023-02-05T03:45:40.193Z,96.75
2023-02-05T03:46:12.740Z,96.85
2023-02-05T03:46:45.203Z,96.75
2023-02-05T03:47:17.707Z,96.75
2023-02-05T03:47:50.229Z,96.75
2023-02-05T03:48:22.674Z,96.64
2023-02-05T03:48:55.118Z,96.54
2023-02-05T03:49:27.587Z,96.64
2023-02-05T03:50:00.089Z,96.75
2023-02-05T03:50:32.630Z,96.85
2023-02-05T03:51:05.159Z,96.95
2023-02-05T03:51:37.662Z,96.95
2023-02-05T03:52:10.125Z,96.95
2023-02-05T03:52:42.607Z,97.06
2023-02-05T03:53:15.061Z,97.16
2023-02-05T03:53:47.511Z,97.16
2023-02-05T03:54:19.993Z,97.27
2023-02-05T03:54:52.430Z,97.37
2023-02-05T03:55:24.981Z,97.47
2023-02-05T03:55:57.414Z,97.58
2023-02-05T03:56:29.881Z,97.78
2023-02-05T03:57:02.343Z,97.99
2023-02-05T03:57:34.798Z,98.05
2023-02-05T03:58:07.311Z,98.26
2023-02-05T03:58:39.855Z,98.47
2023-02-05T03:59:12.388Z,98.57
2023-02-05T03:59:44.842Z,98.68
2023-02-05T04:00:17.332Z,98.68
2023-02-05T04:00:49.937Z,98.57
2023-02-05T04:01:22.483Z,98.26
2023-02-05T04:01:55.007Z,98.26
2023-02-05T04:02:27.515Z,98.26
2023-02-05T04:02:59.947Z,98.36
2023-02-05T04:03:32.447Z,98.36
2023-02-05T04:04:04.901Z,98.36
2023-02-05T04:04:37.368Z,98.36
2023-02-05T04:05:09.864Z,98.26
2023-02-05T04:05:42.347Z,97.95
2023-02-05T04:06:14.934Z,97.64
2023-02-05T04:06:47.424Z,97.64
2023-02-05T04:07:19.949Z,97.64
2023-02-05T04:07:52.408Z,97.43
2023-02-05T04:08:24.911Z,97.22
2023-02-05T04:08:57.347Z,97.33
2023-02-05T04:09:29.805Z,97.22
2023-02-05T04:10:02.283Z,97.22
2023-02-05T04:10:34.775Z,97.33
2023-02-05T04:11:07.256Z,97.33
2023-02-05T04:11:39.710Z,97.33
2023-02-05T04:12:12.204Z,97.22
2023-02-05T04:12:44.656Z,97.12
2023-02-05T04:13:17.125Z,97.02
2023-02-05T04:13:49.597Z,97.02
2023-02-05T04:14:22.287Z,97.12
2023-02-05T04:14:54.774Z,97.43
2023-02-05T04:15:27.251Z,97.85
2023-02-05T04:15:59.711Z,98.05
2023-02-05T04:16:32.273Z,98.05
2023-02-05T04:17:04.639Z,98.26
2023-02-05T04:17:37.110Z,98.57
2023-02-05T04:18:09.622Z,98.57
2023-02-05T04:18:42.117Z,98.78
2023-02-05T04:19:14.558Z,98.88
2023-02-05T04:19:47.001Z,98.88
2023-02-05T04:20:19.470Z,98.99
2023-02-05T04:20:51.908Z,98.99
2023-02-05T04:21:24.363Z,98.47
2023-02-05T04:21:56.814Z,98.05
2023-02-05T04:22:29.308Z,97.85
2023-02-05T04:23:01.750Z,97.53
2023-02-05T04:23:34.297Z,97.12
2023-02-05T04:24:06.957Z,96.81
2023-02-05T04:24:39.352Z,96.70
2023-02-05T04:25:11.786Z,96.50
2023-02-05T04:25:44.225Z,96.29
2023-02-05T04:26:16.709Z,96.29
2023-02-05T04:26:49.188Z,96.33
2023-02-05T04:27:21.654Z,96.33
2023-02-05T04:27:54.131Z,96.33
2023-02-05T04:28:26.600Z,96.54
2023-02-05T04:28:59.088Z,96.54
2023-02-05T04:29:31.563Z,96.64
2023-02-05T04:30:04.034Z,96.64
2023-02-05T04:30:36.601Z,96.75
2023-02-05T04:31:09.036Z,96.85
2023-02-05T04:31:41.523Z,96.95
2023-02-05T04:32:13.954Z,96.95
2023-02-05T04:32:46.406Z,97.16
2023-02-05T04:33:18.857Z,97.27
2023-02-05T04:33:51.300Z,97.37
2023-02-05T04:34:23.810Z,97.58
2023-02-05T04:34:56.270Z,97.68
2023-02-05T04:35:28.733Z,97.89
2023-02-05T04:36:01.222Z,98.10
2023-02-05T04:36:33.700Z,98.30
2023-02-05T04:37:06.152Z,98.20
2023-02-05T04:37:38.652Z,98.20
2023-02-05T04:38:11.114Z,98.30
2023-02-05T04:38:43.592Z,98.41
2023-02-05T04:39:16.044Z,98.61
2023-02-05T04:39:48.502Z,98.82
2023-02-05T04:40:20.987Z,99.03
2023-02-05T04:40:53.400Z,99.13
2023-02-05T04:41:25.868Z,99.24
2023-02-05T04:41:58.299Z,99.24
2023-02-05T04:42:30.751Z,99.34
2023-02-05T04:43:03.234Z,99.34
2023-02-05T04:43:35.721Z,99.55
2023-02-05T04:44:08.184Z,99.65
2023-02-05T04:44:40.686Z,99.76
2023-02-05T04:45:13.139Z,99.86
2023-02-05T04:45:45.616Z,99.96
2023-02-05T04:46:18.075Z,99.96
2023-02-05T04:46:50.564Z,99.99
2023-02-05T04:47:23.034Z,99.99
2023-02-05T04:47:55.483Z,99.99
2023-02-05T04:48:27.943Z,99.99
2023-02-05T04:49:00.405Z,99.99
2023-02-05T04:49:32.868Z,99.99
2023-02-05T04:50:05.335Z,99.99
2023-02-05T04:50:37.779Z,99.99
2023-02-05T04:51:10.247Z,99.99
2023-02-05T04:51:42.720Z,99.99
2023-02-05T04:52:15.182Z,99.99
2023-02-05T04:52:47.665Z,99.99
2023-02-05T04:53:20.135Z,99.99
2023-02-05T04:53:52.589Z,99.99
2023-02-05T04:54:25.067Z,99.99
2023-02-05T04:54:57.518Z,99.99
2023-02-05T04:55:30.029Z,99.99
2023-02-05T04:56:02.471Z,99.99
2023-02-05T04:56:34.965Z,99.99
2023-02-05T04:57:08.184Z,99.99
2023-02-05T04:57:40.660Z,99.99
2023-02-05T04:58:13.179Z,99.99
2023-02-05T04:58:45.642Z,99.99
2023-02-05T04:59:18.092Z,99.99
2023-02-05T04:59:50.550Z,99.99
2023-02-05T05:00:23.007Z,99.99
2023-02-05T05:00:55.507Z,99.99
2023-02-05T05:01:27.914Z,99.99
2023-02-05T05:02:00.390Z,99.99
2023-02-05T05:02:32.862Z,99.99
2023-02-05T05:03:05.283Z,99.99
2023-02-05T05:03:37.778Z,99.99
2023-02-05T05:04:10.232Z,99.99
2023-02-05T05:04:43.250Z,99.99
2023-02-05T05:05:15.113Z,99.99
2023-02-05T05:05:47.560Z,99.99
2023-02-05T05:06:20.072Z,99.99
2023-02-05T05:06:52.525Z,99.99
2023-02-05T05:07:24.990Z,99.99
2023-02-05T05:07:57.544Z,99.99
2023-02-05T05:08:29.980Z,99.99
2023-02-05T05:09:02.422Z,99.99
2023-02-05T05:09:34.880Z,99.99
2023-02-05T05:10:07.349Z,99.99
2023-02-05T05:10:39.802Z,99.99
2023-02-05T05:11:12.249Z,99.99
2023-02-05T05:11:44.685Z,99.99
2023-02-05T05:12:17.113Z,99.99
2023-02-05T05:12:49.554Z,99.99
2023-02-05T05:13:22.005Z,99.99
2023-02-05T05:13:54.503Z,99.99
2023-02-05T05:14:26.936Z,99.99
2023-02-05T05:14:59.384Z,99.99
2023-02-05T05:15:32.035Z,99.99
2023-02-05T05:16:04.353Z,99.99
2023-02-05T05:16:36.779Z,99.99
2023-02-05T05:17:09.228Z,99.99
2023-02-05T05:17:41.692Z,99.99
2023-02-05T05:18:14.167Z,99.99
2023-02-05T05:18:46.615Z,99.99
2023-02-05T05:19:19.080Z,99.99
2023-02-05T05:19:58.872Z,99.99
2023-02-05T05:20:33.565Z,99.99
2023-02-05T05:21:07.157Z,99.99
2023-02-05T05:21:39.669Z,99.99
2023-02-05T05:22:12.186Z,99.99
2023-02-05T05:22:44.763Z,99.99
2023-02-05T05:23:17.238Z,99.99
2023-02-05T05:23:49.694Z,99.99
2023-02-05T05:24:22.152Z,99.99
2023-02-05T05:24:54.626Z,99.99
2023-02-05T05:25:27.105Z,99.99
2023-02-05T05:25:59.601Z,99.99
2023-02-05T05:26:32.091Z,99.99
2023-02-05T05:27:04.551Z,99.99
2023-02-05T05:27:37.111Z,99.99
2023-02-05T05:28:09.688Z,99.99
2023-02-05T05:28:42.218Z,99.99
2023-02-05T05:29:14.728Z,99.99
2023-02-05T05:29:47.182Z,99.99
2023-02-05T05:30:19.629Z,99.99
2023-02-05T05:30:52.121Z,99.99
2023-02-05T05:31:24.661Z,99.99
2023-02-05T05:31:57.035Z,99.99
2023-02-05T05:32:29.503Z,99.99
2023-02-05T05:33:01.996Z,99.99
2023-02-05T05:33:34.508Z,99.99
2023-02-05T05:34:06.994Z,99.99
2023-02-05T05:34:39.563Z,99.99
2023-02-05T05:35:12.153Z,99.99
2023-02-05T05:35:44.628Z,99.99
2023-02-05T05:36:17.144Z,99.99
2023-02-05T05:36:49.675Z,99.99
2023-02-05T05:37:22.147Z,99.99
2023-02-05T05:37:54.610Z,99.99
2023-02-05T05:38:27.181Z,99.99
2023-02-05T05:38:59.643Z,99.99
2023-02-05T05:39:32.112Z,99.99
2023-02-05T05:40:04.591Z,99.99
2023-02-05T05:40:37.016Z,99.99
2023-02-05T05:41:09.505Z,99.99
2023-02-05T05:41:41.999Z,99.99
2023-02-05T05:42:14.485Z,99.99
2023-02-05T05:42:46.946Z,99.99
2023-02-05T05:43:19.423Z,99.99
2023-02-05T05:43:51.893Z,99.99
2023-02-05T05:44:24.385Z,99.99
2023-02-05T05:44:56.950Z,99.99
2023-02-05T05:45:29.436Z,99.99
2023-02-05T05:46:01.979Z,99.99
2023-02-05T05:46:34.488Z,99.99
2023-02-05T05:47:07.026Z,99.99
2023-02-05T05:47:39.598Z,99.99
2023-02-05T05:48:12.157Z,99.99
2023-02-05T05:48:44.615Z,99.99
2023-02-05T05:49:17.103Z,99.99
2023-02-05T05:49:49.555Z,99.99
2023-02-05T05:50:22.075Z,99.99
2023-02-05T05:50:54.546Z,99.99
2023-02-05T05:51:27.102Z,99.99
2023-02-05T05:51:59.535Z,99.99
2023-02-05T05:52:32.752Z,99.99
2023-02-05T05:53:04.521Z,99.99
2023-02-05T05:53:36.982Z,99.99
2023-02-05T05:54:09.453Z,99.99
2023-02-05T05:54:41.938Z,99.99
2023-02-05T05:55:14.540Z,99.99
2023-02-05T05:55:47.015Z,99.99
2023-02-05T05:56:19.514Z,99.99
2023-02-05T05:56:51.991Z,99.99
2023-02-05T05:57:24.488Z,99.99
2023-02-05T05:57:56.973Z,99.99
2023-02-05T05:58:29.457Z,99.99
2023-02-05T05:59:01.930Z,99.99
2023-02-05T05:59:34.458Z,99.99
2023-02-05T06:00:06.947Z,99.99
2023-02-05T06:00:39.445Z,99.99
2023-02-05T06:01:11.972Z,99.99
2023-02-05T06:01:44.431Z,99.99
2023-02-05T06:02:16.897Z,99.99
2023-02-05T06:02:49.396Z,99.99
2023-02-05T06:03:21.888Z,99.99
2023-02-05T06:03:54.449Z,99.99
2023-02-05T06:07:17.162Z,99.99
2023-02-05T06:07:49.578Z,99.99
2023-02-05T06:08:22.061Z,99.99
2023-02-05T06:08:54.474Z,99.99
2023-02-05T06:09:26.913Z,99.99
2023-02-05T06:09:59.346Z,99.99
2023-02-05T06:10:31.797Z,99.99
2023-02-05T06:11:04.260Z,99.99
2023-02-05T06:11:36.678Z,99.99
2023-02-05T06:12:11.318Z,99.99
2023-02-05T06:12:41.543Z,99.99
2023-02-05T06:13:14.019Z,99.99
2023-02-05T06:13:46.492Z,99.99
2023-02-05T06:14:18.969Z,99.99
2023-02-05T06:14:51.401Z,99.99
2023-02-05T06:15:23.818Z,99.99
2023-02-05T06:15:56.281Z,99.99
2023-02-05T06:16:28.689Z,99.99
2023-02-05T06:17:01.116Z,99.99
2023-02-05T06:17:33.541Z,99.99
2023-02-05T06:18:05.957Z,99.99
2023-02-05T06:18:38.410Z,99.99
2023-02-05T06:19:10.858Z,99.99
2023-02-05T06:19:43.295Z,99.99
2023-02-05T06:22:01.957Z,99.99
2023-02-05T06:22:34.469Z,99.99
2023-02-05T06:23:06.961Z,99.99
2023-02-05T06:23:39.397Z,99.99
2023-02-05T06:24:11.854Z,99.99
2023-02-05T06:24:44.436Z,99.99
2023-02-05T06:25:16.880Z,99.99
2023-02-05T06:25:49.288Z,99.99
2023-02-05T06:26:21.736Z,99.99
2023-02-05T06:26:54.195Z,99.99
2023-02-05T06:27:26.668Z,99.99
2023-02-05T06:27:59.188Z,99.99
2023-02-05T06:28:31.590Z,99.99
2023-02-05T06:29:04.024Z,99.99
2023-02-05T06:29:36.486Z,99.99
2023-02-05T06:30:08.924Z,99.99
2023-02-05T06:30:41.672Z,99.99
2023-02-05T06:31:14.217Z,99.99
2023-02-05T06:31:46.687Z,99.99
2023-02-05T06:32:19.102Z,99.99
2023-02-05T06:32:51.629Z,99.99
2023-02-05T06:33:24.369Z,99.99
2023-02-05T06:33:56.885Z,99.99
2023-02-05T06:34:29.538Z,99.99
2023-02-05T06:35:02.055Z,99.99
2023-02-05T06:35:35.351Z,99.99
2023-02-05T06:36:07.802Z,99.99
2023-02-05T06:36:40.237Z,99.99
2023-02-05T06:37:12.714Z,99.99
2023-02-05T06:37:47.583Z,99.99
2023-02-05T06:38:17.899Z,99.99
2023-02-05T06:38:50.358Z,99.99
2023-02-05T06:39:25.056Z,99.99
2023-02-05T06:39:55.497Z,99.99
2023-02-05T06:40:27.952Z,99.99
2023-02-05T06:41:00.405Z,99.99
2023-02-05T06:41:32.924Z,99.99
2023-02-05T06:42:05.398Z,99.99
2023-02-05T06:42:37.886Z,99.99
2023-02-05T06:43:10.365Z,99.99
2023-02-05T06:43:42.853Z,99.99
2023-02-05T06:44:15.298Z,99.99
2023-02-05T06:44:47.976Z,99.99
2023-02-05T06:45:20.413Z,99.99
2023-02-05T06:45:52.842Z,99.99
2023-02-05T06:46:25.353Z,99.99
2023-02-05T06:46:57.793Z,99.99
2023-02-05T06:47:30.231Z,99.99
2023-02-05T06:48:02.695Z,99.99
2023-02-05T06:48:35.171Z,99.99
2023-02-05T06:49:07.619Z,99.99
2023-02-05T06:49:40.048Z,99.99
2023-02-05T06:50:12.500Z,99.99
2023-02-05T06:50:44.932Z,99.99
2023-02-05T06:51:17.388Z,99.99
2023-02-05T06:51:49.830Z,99.99
2023-02-05T06:52:22.274Z,99.99
2023-02-05T06:52:55.412Z,99.99
2023-02-05T06:53:28.494Z,99.99
2023-02-05T06:54:00.995Z,99.99
2023-02-05T06:54:33.430Z,99.99
2023-02-05T06:55:05.910Z,99.99
2023-02-05T06:55:38.365Z,99.99
2023-02-05T06:56:10.966Z,99.99
2023-02-05T06:56:43.517Z,99.99
2023-02-05T06:57:15.988Z,99.99
2023-02-05T06:57:48.416Z,99.99
2023-02-05T06:58:21.018Z,99.99
2023-02-05T06:58:53.465Z,99.99
2023-02-05T06:59:25.952Z,99.99
2023-02-05T06:59:58.401Z,99.99
2023-02-05T07:00:32.342Z,99.99
2023-02-05T07:01:03.260Z,99.99
2023-02-05T07:01:35.786Z,99.99
2023-02-05T07:02:08.274Z,99.99
2023-02-05T07:02:40.790Z,99.99
2023-02-05T07:03:13.217Z,99.99